Time;durP1;ratioP1;P1;durP2;ratioP2;P2;SDS_P1;SDS_P2;PMS_P1;PMS_P2;Temp;Humidity;BMP_temperature;BMP_pressure;BME280_temperature;BME280_humidity;BME280_pressure;Samples;Min_cycle;Max_cycle;Signal;HPM_P1;HPM_P2
2023/09/13 00:02:41;;;;;;;29.20;23.20;;;;;;;15.74;80.70;99173.13;435246;1254;139503;-66
2023/09/13 00:12:47;;;;;;;27.40;24.60;;;;;;;15.62;80.81;99165.71;435054;1257;139251;-66
2023/09/13 00:22:53;;;;;;;25.70;22.40;;;;;;;15.53;81.19;99167.63;435058;1257;140253;-66
2023/09/13 00:32:59;;;;;;;26.40;23.20;;;;;;;15.46;81.64;99171.95;434980;1259;139289;-65
2023/09/13 00:43:05;;;;;;;30.70;21.70;;;;;;;15.34;81.82;99164.20;434886;1257;140216;-65
2023/09/13 00:53:12;;;;;;;26.20;23.30;;;;;;;15.25;82.56;99164.83;436538;1257;139456;-66
2023/09/13 01:03:19;;;;;;;26.10;23.30;;;;;;;15.20;83.35;99161.08;436782;1257;139531;-64
2023/09/13 01:13:24;;;;;;;24.00;21.40;;;;;;;15.14;83.35;99164.56;435653;1256;139186;-65
2023/09/13 01:23:46;;;;;;;27.10;23.80;;;;;;;15.09;83.75;99165.02;434918;1257;139763;-65
2023/09/13 01:33:51;;;;;;;24.80;22.20;;;;;;;15.04;84.51;99159.30;435040;1258;140942;-65
2023/09/13 01:43:59;;;;;;;30.00;26.00;;;;;;;15.03;85.78;99158.16;435128;1257;139207;-66
2023/09/13 01:54:05;;;;;;;27.40;22.70;;;;;;;15.09;86.34;99153.34;435010;1257;140153;-65
2023/09/13 02:04:11;;;;;;;30.80;27.40;;;;;;;15.03;85.97;99151.48;435322;1257;139207;-64
2023/09/13 02:14:17;;;;;;;26.00;23.30;;;;;;;15.05;86.72;99147.56;435115;1258;139659;-65
2023/09/13 02:24:22;;;;;;;23.80;21.40;;;;;;;15.01;86.16;99149.56;435062;1257;141348;-66
2023/09/13 02:34:28;;;;;;;28.20;24.20;;;;;;;14.89;86.06;99149.71;434999;1254;141335;-66
2023/09/13 02:44:35;;;;;;;26.40;23.60;;;;;;;14.87;86.89;99148.85;435064;1256;139556;-65
2023/09/13 02:54:41;;;;;;;25.80;23.20;;;;;;;14.83;87.07;99137.55;435029;1257;139794;-66
2023/09/13 03:04:49;;;;;;;27.70;23.90;;;;;;;14.78;86.72;99126.70;435027;1256;140882;-66
2023/09/13 03:14:57;;;;;;;28.80;25.80;;;;;;;14.73;86.87;99125.72;435657;1256;139373;-67
2023/09/13 03:25:05;;;;;;;36.60;32.50;;;;;;;14.77;87.75;99122.09;435240;1255;139001;-67
2023/09/13 03:35:10;;;;;;;;;;;;;;;14.96;88.85;99124.38;435840;1256;140033;-65
2023/09/13 03:45:16;;;;;;;31.60;27.90;;;;;;;15.06;88.63;99124.07;435160;1257;125898;-66
2023/09/13 03:55:22;;;;;;;31.50;26.50;;;;;;;14.98;88.17;99116.28;435360;1257;139099;-66
2023/09/13 04:05:29;;;;;;;36.10;31.90;;;;;;;14.94;88.18;99113.11;435840;1255;140254;-64
2023/09/13 04:15:35;;;;;;;40.30;31.90;;;;;;;15.00;88.87;99101.30;435340;1255;140321;-66
2023/09/13 04:25:41;;;;;;;33.50;29.90;;;;;;;15.23;89.29;99099.58;435266;1254;139439;-66
2023/09/13 04:35:46;;;;;;;34.70;30.50;;;;;;;15.47;89.11;99104.83;435144;1254;139544;-66
2023/09/13 04:45:53;;;;;;;30.20;26.80;;;;;;;15.67;88.63;99104.56;435654;1254;140622;-68
2023/09/13 04:56:00;;;;;;;34.30;30.50;;;;;;;15.86;88.26;99109.15;435358;1254;139206;-66
2023/09/13 05:06:06;;;;;;;32.10;28.10;;;;;;;16.25;88.33;99104.86;435747;1254;139518;-66
2023/09/13 05:16:14;;;;;;;35.30;28.60;;;;;;;16.77;87.70;99110.10;435075;1254;139492;-65
2023/09/13 05:26:20;;;;;;;35.20;25.70;;;;;;;17.89;88.00;99113.54;435265;1254;139147;-67
2023/09/13 05:36:26;;;;;;;27.30;24.50;;;;;;;20.51;84.35;99104.45;434971;1254;139340;-67
2023/09/13 05:46:31;;;;;;;25.70;22.80;;;;;;;21.06;77.79;99104.90;435036;1257;140253;-66
2023/09/13 05:56:37;;;;;;;23.70;21.40;;;;;;;24.44;75.74;99100.48;435092;1256;140983;-62
2023/09/13 06:06:43;;;;;;;21.30;19.30;;;;;;;28.61;66.35;99098.48;435157;1254;138944;-63
2023/09/13 06:16:49;;;;;;;22.50;20.30;;;;;;;31.81;57.12;99097.34;435042;1254;140478;-64
2023/09/13 06:26:54;;;;;;;;;;;;;;;34.59;50.46;99100.29;434871;1254;138637;-71
2023/09/13 06:37:00;;;;;;;19.90;15.90;;;;;;;37.16;44.69;99100.86;435152;1256;124559;-74
2023/09/13 06:47:07;;;;;;;17.70;16.00;;;;;;;39.47;39.57;99100.20;437247;1257;139725;-73
2023/09/13 06:57:13;;;;;;;18.50;13.60;;;;;;;41.29;35.84;99106.92;438407;1254;140396;-70
2023/09/13 07:07:23;;;;;;;16.80;15.00;;;;;;;42.69;32.70;99108.63;438385;1252;138275;-73
2023/09/13 07:17:29;;;;;;;15.30;13.80;;;;;;;43.24;30.52;99116.01;438129;1252;181358;-72
2023/09/13 07:27:35;;;;;;;14.60;13.20;;;;;;;44.27;28.99;99113.09;438341;1253;138507;-68
2023/09/13 07:37:41;;;;;;;11.90;11.00;;;;;;;45.79;27.63;99110.84;438425;1254;138406;-69
2023/09/13 07:47:47;;;;;;;13.80;10.80;;;;;;;47.05;26.07;99108.34;438257;1255;138209;-73
2023/09/13 07:57:53;;;;;;;12.80;11.30;;;;;;;48.46;24.33;99102.55;438627;1253;138349;-77
2023/09/13 08:08:00;;;;;;;13.00;11.70;;;;;;;49.19;23.28;99097.91;438905;1253;138336;-76
2023/09/13 08:18:06;;;;;;;15.90;11.20;;;;;;;50.21;22.31;99089.39;438256;1256;139482;-72
2023/09/13 08:28:12;;;;;;;10.60;9.10;;;;;;;50.60;21.43;99086.46;435011;1256;138319;-75
2023/09/13 08:38:18;;;;;;;10.10;7.50;;;;;;;49.92;21.37;99079.46;438477;1253;138166;-75
2023/09/13 08:48:25;;;;;;;9.60;8.50;;;;;;;46.72;21.80;99078.93;438232;1253;139991;-71
2023/09/13 08:58:31;;;;;;;9.90;8.50;;;;;;;41.73;24.48;99068.54;438138;1253;140540;-74
2023/09/13 09:08:39;;;;;;;10.00;7.50;;;;;;;38.71;27.00;99065.66;438158;1256;140642;-71
2023/09/13 09:18:46;;;;;;;9.30;7.90;;;;;;;37.00;29.04;99066.14;435651;1257;140151;-76
2023/09/13 09:28:53;;;;;;;7.80;7.00;;;;;;;35.96;30.59;99065.39;436218;1256;139289;-75
2023/09/13 09:39:03;;;;;;;9.10;8.20;;;;;;;35.12;31.53;99062.23;436153;1254;139120;-64
2023/09/13 09:49:10;;;;;;;9.40;7.40;;;;;;;34.53;32.72;99052.05;435164;1256;138097;-66
2023/09/13 09:59:16;;;;;;;9.90;8.60;;;;;;;34.20;33.64;99046.58;434925;1253;138575;-75
2023/09/13 10:09:22;;;;;;;9.00;8.10;;;;;;;33.75;34.26;99039.66;438212;1252;138606;-79
2023/09/13 10:19:31;;;;;;;10.30;8.20;;;;;;;33.26;35.03;99038.35;438394;1252;138164;-76
2023/09/13 10:29:41;;;;;;;14.10;7.90;;;;;;;32.81;35.73;99032.83;437523;1254;140055;-62
2023/09/13 10:39:52;;;;;;;9.90;8.60;;;;;;;32.30;36.68;99027.02;435107;1257;139590;-62
2023/09/13 10:50:00;;;;;;;9.50;8.30;;;;;;;31.80;37.43;99026.83;435101;1256;138177;-61
2023/09/13 11:00:10;;;;;;;7.70;6.80;;;;;;;31.55;37.68;99027.63;435109;1256;139200;-65
2023/09/13 11:10:18;;;;;;;6.90;6.40;;;;;;;31.62;37.68;99031.36;435273;1253;139605;-61
2023/09/13 11:20:27;;;;;;;8.60;6.50;;;;;;;31.58;37.73;99032.02;435505;1256;140076;-61
2023/09/13 11:30:53;;;;;;;7.60;6.90;;;;;;;31.41;38.18;99033.64;435473;1253;138139;-61
2023/09/13 11:41:00;;;;;;;7.50;6.90;;;;;;;31.40;38.10;99027.73;435453;1256;139030;-61
2023/09/13 11:51:12;;;;;;;8.10;6.10;;;;;;;31.49;37.84;99033.00;435386;1253;138722;-61
2023/09/13 12:01:27;;;;;;;8.50;7.10;;;;;;;31.46;37.67;99046.30;435591;1253;138397;-61
2023/09/13 12:11:34;;;;;;;8.70;6.40;;;;;;;31.43;37.31;99047.67;436188;1253;138513;-64
2023/09/13 12:21:47;;;;;;;10.30;7.90;;;;;;;31.12;37.72;99052.99;435662;1256;140648;-61
2023/09/13 12:31:57;;;;;;;12.30;7.70;;;;;;;30.81;38.47;99046.55;436100;1253;138448;-61
2023/09/13 12:42:07;;;;;;;11.00;7.60;;;;;;;30.75;38.93;99040.47;435519;1254;138710;-62
2023/09/13 12:52:15;;;;;;;9.20;7.60;;;;;;;30.83;38.67;99035.23;435426;1253;138287;-61
2023/09/13 13:02:21;;;;;;;11.00;7.80;;;;;;;30.83;38.26;99018.27;435419;1253;139921;-62
2023/09/13 13:12:28;;;;;;;8.10;7.20;;;;;;;30.55;38.60;99005.06;435117;1253;139308;-62
2023/09/13 13:22:34;;;;;;;10.00;7.30;;;;;;;30.31;39.14;98995.55;435370;1254;140467;-61
2023/09/13 13:32:39;;;;;;;10.60;7.20;;;;;;;30.45;39.16;98993.45;435631;1257;138390;-61
2023/09/13 13:42:45;;;;;;;16.40;7.00;;;;;;;30.62;39.19;98981.03;435188;1253;139742;-61
2023/09/13 13:52:52;;;;;;;11.00;7.90;;;;;;;30.70;39.72;98959.77;435132;1256;139222;-62
2023/09/13 14:02:58;;;;;;;12.30;8.30;;;;;;;30.56;39.79;98949.05;435494;1257;138737;-63
2023/09/13 14:13:04;;;;;;;13.00;8.70;;;;;;;30.49;40.26;98927.60;436012;1255;138649;-61
2023/09/13 14:23:10;;;;;;;12.40;8.40;;;;;;;30.32;40.59;98921.64;435539;1253;139488;-62
2023/09/13 14:33:18;;;;;;;19.00;8.60;;;;;;;30.12;41.55;98920.88;435892;1253;139212;-62
2023/09/13 14:43:24;;;;;;;19.20;8.60;;;;;;;29.85;42.58;98933.30;435551;1253;138038;-62
2023/09/13 14:53:30;;;;;;;18.10;10.00;;;;;;;29.58;43.71;98930.23;435912;1253;140024;-62
2023/09/13 15:03:35;;;;;;;14.20;8.30;;;;;;;29.27;45.16;98926.94;435360;1253;138469;-62
2023/09/13 15:13:43;;;;;;;15.90;10.40;;;;;;;28.86;46.13;98931.48;435344;1256;139327;-61
2023/09/13 15:23:48;;;;;;;21.10;9.70;;;;;;;28.39;47.33;98931.23;435221;1254;138867;-61
2023/09/13 15:33:54;;;;;;;17.00;9.90;;;;;;;27.93;49.47;98932.66;435295;1254;139747;-61
2023/09/13 15:44:00;;;;;;;14.80;9.00;;;;;;;27.48;51.52;98933.54;435242;1253;138212;-61
2023/09/13 15:54:06;;;;;;;19.20;10.10;;;;;;;27.03;52.99;98946.27;435377;1257;138622;-61
2023/09/13 16:04:12;;;;;;;17.30;12.20;;;;;;;26.57;55.21;98955.14;435778;1253;139417;-62
2023/09/13 16:14:33;;;;;;;11.70;8.30;;;;;;;25.85;56.23;99024.05;435234;1253;139230;-60
2023/09/13 16:24:39;;;;;;;9.60;6.60;;;;;;;24.43;56.58;99054.60;436832;1256;138483;-61
2023/09/13 16:34:45;;;;;;;9.10;4.20;;;;;;;23.27;58.21;99026.65;436091;1253;139606;-62
2023/09/13 16:44:51;;;;;;;13.20;7.70;;;;;;;22.52;60.19;99040.35;435447;1257;138620;-64
2023/09/13 16:54:57;;;;;;;14.30;9.60;;;;;;;22.05;63.48;99064.62;435353;1253;140533;-63
2023/09/13 17:05:04;;;;;;;15.00;10.60;;;;;;;21.64;66.23;99099.00;435144;1253;140751;-63
2023/09/13 17:15:11;;;;;;;15.70;10.90;;;;;;;21.38;69.47;99118.79;435856;1256;139861;-62
2023/09/13 17:25:17;;;;;;;11.10;10.10;;;;;;;21.19;71.54;99134.46;436120;1257;139433;-63
2023/09/13 17:35:22;;;;;;;10.90;9.50;;;;;;;21.05;72.01;99130.64;435288;1256;139019;-63
2023/09/13 17:45:28;;;;;;;7.00;6.40;;;;;;;20.89;72.60;99129.90;435550;1253;139936;-63
2023/09/13 17:55:34;;;;;;;8.00;7.20;;;;;;;20.68;72.86;99140.24;435513;1256;139171;-63
2023/09/13 18:05:40;;;;;;;13.20;10.30;;;;;;;20.46;73.61;99132.38;435190;1253;138992;-62
2023/09/13 18:15:47;;;;;;;10.80;9.80;;;;;;;20.22;74.45;99159.23;435296;1254;139410;-65
2023/09/13 18:25:53;;;;;;;9.00;8.20;;;;;;;20.00;75.57;99155.67;435291;1257;139334;-64
2023/09/13 18:36:00;;;;;;;9.70;8.70;;;;;;;19.87;76.81;99172.13;435155;1257;138660;-66
2023/09/13 18:46:08;;;;;;;11.00;9.90;;;;;;;19.78;78.09;99183.09;435841;1253;139848;-66
2023/09/13 18:56:15;;;;;;;11.70;10.60;;;;;;;19.68;79.02;99188.25;436238;1257;138983;-66
2023/09/13 19:06:21;;;;;;;12.10;10.20;;;;;;;19.58;79.90;99188.91;435582;1257;140376;-64
2023/09/13 19:16:29;;;;;;;9.60;8.60;;;;;;;19.53;81.36;99203.87;435531;1254;140621;-65
2023/09/13 19:26:34;;;;;;;8.80;7.90;;;;;;;19.45;82.25;99217.09;435763;1257;139467;-63
2023/09/13 19:36:40;;;;;;;9.10;7.80;;;;;;;19.40;83.49;99218.58;436056;1257;139835;-64
2023/09/13 19:46:46;;;;;;;10.00;9.00;;;;;;;19.36;84.50;99220.58;435269;1254;138959;-64
2023/09/13 19:56:52;;;;;;;11.60;10.40;;;;;;;19.25;84.91;99222.61;436092;1257;139061;-63
2023/09/13 20:06:59;;;;;;;11.50;10.50;;;;;;;19.12;86.00;99225.18;435290;1257;138994;-66
2023/09/13 20:17:06;;;;;;;10.60;9.60;;;;;;;19.05;87.42;99226.50;435101;1254;139706;-64
2023/09/13 20:27:13;;;;;;;11.20;10.20;;;;;;;19.01;88.05;99220.46;435803;1254;138960;-63
2023/09/13 20:37:19;;;;;;;12.10;10.90;;;;;;;18.91;88.78;99214.80;435544;1257;139230;-64
2023/09/13 20:47:26;;;;;;;12.60;11.40;;;;;;;18.90;89.68;99207.98;435432;1254;139080;-65
2023/09/13 20:57:32;;;;;;;11.50;10.50;;;;;;;18.88;90.49;99202.08;435150;1259;141129;-65
2023/09/13 21:07:38;;;;;;;11.70;10.60;;;;;;;18.88;90.98;99206.41;435067;1253;139234;-65
2023/09/13 21:17:44;;;;;;;11.70;10.60;;;;;;;18.86;91.17;99197.75;435030;1259;139257;-64
2023/09/13 21:27:50;;;;;;;12.30;10.90;;;;;;;18.82;91.46;99218.19;435045;1259;140187;-65
2023/09/13 21:37:56;;;;;;;10.00;8.40;;;;;;;18.79;91.53;99221.69;435239;1256;139573;-65
2023/09/13 21:48:01;;;;;;;9.70;8.80;;;;;;;18.79;91.31;99231.46;435719;1256;139065;-65
2023/09/13 21:58:09;;;;;;;7.70;7.00;;;;;;;18.79;91.39;99224.23;435702;1253;139028;-65
2023/09/13 22:08:16;;;;;;;10.00;9.00;;;;;;;18.76;91.28;99235.63;435984;1257;139745;-65
2023/09/13 22:18:22;;;;;;;7.70;6.90;;;;;;;18.72;91.30;99256.98;435066;1257;139393;-65
2023/09/13 22:28:28;;;;;;;8.10;7.10;;;;;;;18.64;91.39;99265.45;435387;1257;138818;-67
2023/09/13 22:38:34;;;;;;;8.10;7.00;;;;;;;18.55;91.39;99276.85;435843;1254;139098;-64
2023/09/13 22:48:40;;;;;;;6.30;5.80;;;;;;;18.44;91.29;99281.70;435355;1254;139040;-67
2023/09/13 22:58:46;;;;;;;6.50;5.90;;;;;;;18.28;91.24;99287.30;435771;1257;139672;-68
2023/09/13 23:08:52;;;;;;;5.70;5.20;;;;;;;18.06;91.30;99287.03;435663;1254;139775;-68
2023/09/13 23:18:58;;;;;;;8.10;6.30;;;;;;;17.91;92.08;99291.13;435428;1257;139014;-68
2023/09/13 23:29:05;;;;;;;6.00;5.50;;;;;;;17.90;92.66;99299.52;435584;1256;139318;-69
2023/09/13 23:39:11;;;;;;;7.10;5.00;;;;;;;17.85;92.87;99298.31;436254;1256;138979;-68
2023/09/13 23:49:17;;;;;;;6.50;5.10;;;;;;;17.77;93.03;99291.58;435580;1254;139047;-67
2023/09/13 23:59:22;;;;;;;7.20;5.10;;;;;;;17.70;93.28;99294.10;435618;1254;138944;-68
